sensor_id;sensor_type;location;lat;lon;timestamp;pressure;altitude;pressure_sealevel;temperature;humidity
63097;BME280;49185;42.320;23.198;2023-03-03T00:00:49;94862.66;;;3.72;81.23
63097;BME280;49185;42.320;23.198;2023-03-03T00:03:17;94859.19;;;3.52;82.58
63097;BME280;49185;42.320;23.198;2023-03-03T00:05:43;94855.44;;;4.60;78.11
63097;BME280;49185;42.320;23.198;2023-03-03T00:08:09;94850.09;;;3.94;79.03
63097;BME280;49185;42.320;23.198;2023-03-03T00:10:35;94848.69;;;3.52;80.61
63097;BME280;49185;42.320;23.198;2023-03-03T00:13:01;94864.47;;;3.78;80.30
63097;BME280;49185;42.320;23.198;2023-03-03T00:15:27;94853.34;;;3.63;80.76
63097;BME280;49185;42.320;23.198;2023-03-03T00:17:53;94852.72;;;4.01;78.91
63097;BME280;49185;42.320;23.198;2023-03-03T00:22:53;94846.03;;;4.84;76.14
63097;BME280;49185;42.320;23.198;2023-03-03T00:25:32;94845.59;;;4.22;78.88
63097;BME280;49185;42.320;23.198;2023-03-03T00:28:07;94839.72;;;4.19;78.89
63097;BME280;49185;42.320;23.198;2023-03-03T00:30:40;94831.91;;;3.86;80.00
63097;BME280;49185;42.320;23.198;2023-03-03T00:33:38;94830.28;;;4.64;77.17
63097;BME280;49185;42.320;23.198;2023-03-03T00:38:50;94819.59;;;4.45;78.69
63097;BME280;49185;42.320;23.198;2023-03-03T00:41:25;94823.75;;;4.08;80.09
63097;BME280;49185;42.320;23.198;2023-03-03T00:43:51;94828.44;;;3.66;82.33
63097;BME280;49185;42.320;23.198;2023-03-03T00:46:19;94819.97;;;3.64;83.03
63097;BME280;49185;42.320;23.198;2023-03-03T00:48:46;94825.13;;;4.30;80.77
63097;BME280;49185;42.320;23.198;2023-03-03T00:51:29;94821.13;;;3.94;82.38
63097;BME280;49185;42.320;23.198;2023-03-03T00:53:56;94813.25;;;3.88;83.04
63097;BME280;49185;42.320;23.198;2023-03-03T00:56:23;94806.41;;;3.67;83.29
63097;BME280;49185;42.320;23.198;2023-03-03T00:58:49;94809.22;;;3.65;83.97
63097;BME280;49185;42.320;23.198;2023-03-03T01:01:16;94803.38;;;3.56;84.49
63097;BME280;49185;42.320;23.198;2023-03-03T01:03:41;94803.75;;;3.53;84.93
63097;BME280;49185;42.320;23.198;2023-03-03T01:06:07;94801.31;;;3.52;84.88
63097;BME280;49185;42.320;23.198;2023-03-03T01:08:33;94798.72;;;3.65;84.92
63097;BME280;49185;42.320;23.198;2023-03-03T01:11:04;94796.59;;;4.14;82.63
63097;BME280;49185;42.320;23.198;2023-03-03T01:13:35;94797.56;;;4.33;82.39
63097;BME280;49185;42.320;23.198;2023-03-03T01:16:02;94798.13;;;4.48;81.13
63097;BME280;49185;42.320;23.198;2023-03-03T01:18:28;94790.97;;;3.90;84.00
63097;BME280;49185;42.320;23.198;2023-03-03T01:20:54;94791.38;;;4.07;84.22
63097;BME280;49185;42.320;23.198;2023-03-03T01:23:20;94786.72;;;3.96;84.93
63097;BME280;49185;42.320;23.198;2023-03-03T01:25:46;94795.50;;;4.42;83.19
63097;BME280;49185;42.320;23.198;2023-03-03T01:28:11;94784.91;;;4.55;82.96
63097;BME280;49185;42.320;23.198;2023-03-03T01:30:36;94785.72;;;4.55;82.06
63097;BME280;49185;42.320;23.198;2023-03-03T01:33:02;94787.78;;;4.47;81.50
63097;BME280;49185;42.320;23.198;2023-03-03T01:35:28;94781.56;;;4.34;82.64
63097;BME280;49185;42.320;23.198;2023-03-03T01:37:53;94782.56;;;4.33;83.38
63097;BME280;49185;42.320;23.198;2023-03-03T01:40:25;94780.91;;;4.39;82.98
63097;BME280;49185;42.320;23.198;2023-03-03T01:42:51;94782.81;;;4.25;84.07
63097;BME280;49185;42.320;23.198;2023-03-03T01:45:27;94789.78;;;3.86;86.32
63097;BME280;49185;42.320;23.198;2023-03-03T01:47:59;94792.81;;;3.70;86.73
63097;BME280;49185;42.320;23.198;2023-03-03T01:53:02;94779.59;;;4.10;84.88
63097;BME280;49185;42.320;23.198;2023-03-03T01:55:33;94775.84;;;3.66;86.82
63097;BME280;49185;42.320;23.198;2023-03-03T02:00:40;94776.25;;;3.29;89.17
63097;BME280;49185;42.320;23.198;2023-03-03T02:03:07;94782.09;;;3.11;91.15
63097;BME280;49185;42.320;23.198;2023-03-03T02:05:33;94772.19;;;3.00;91.26
63097;BME280;49185;42.320;23.198;2023-03-03T02:08:00;94779.03;;;3.01;91.50
63097;BME280;49185;42.320;23.198;2023-03-03T02:10:26;94786.13;;;3.07;92.11
63097;BME280;49185;42.320;23.198;2023-03-03T02:12:54;94774.63;;;3.48;90.33
63097;BME280;49185;42.320;23.198;2023-03-03T02:17:51;94775.22;;;3.03;91.07
63097;BME280;49185;42.320;23.198;2023-03-03T02:20:52;94769.38;;;3.21;91.05
63097;BME280;49185;42.320;23.198;2023-03-03T02:26:20;94767.97;;;3.39;90.48
63097;BME280;49185;42.320;23.198;2023-03-03T02:28:46;94764.50;;;3.58;88.52
63097;BME280;49185;42.320;23.198;2023-03-03T02:31:15;94767.53;;;3.49;89.10
63097;BME280;49185;42.320;23.198;2023-03-03T02:33:43;94761.50;;;3.08;90.90
63097;BME280;49185;42.320;23.198;2023-03-03T02:36:13;94760.47;;;3.22;91.72
63097;BME280;49185;42.320;23.198;2023-03-03T02:41:48;94763.28;;;3.01;92.37
63097;BME280;49185;42.320;23.198;2023-03-03T02:44:17;94763.25;;;2.88;93.52
63097;BME280;49185;42.320;23.198;2023-03-03T02:46:45;94771.16;;;2.94;92.75
63097;BME280;49185;42.320;23.198;2023-03-03T02:49:14;94766.50;;;2.90;93.00
63097;BME280;49185;42.320;23.198;2023-03-03T02:51:40;94766.06;;;2.79;94.87
63097;BME280;49185;42.320;23.198;2023-03-03T02:54:07;94769.31;;;2.75;94.93
63097;BME280;49185;42.320;23.198;2023-03-03T02:56:34;94771.75;;;2.76;95.01
63097;BME280;49185;42.320;23.198;2023-03-03T02:59:00;94773.34;;;2.77;96.04
63097;BME280;49185;42.320;23.198;2023-03-03T03:01:25;94777.78;;;2.70;96.45
63097;BME280;49185;42.320;23.198;2023-03-03T03:03:51;94777.97;;;2.69;97.27
63097;BME280;49185;42.320;23.198;2023-03-03T03:06:17;94771.91;;;2.68;97.69
63097;BME280;49185;42.320;23.198;2023-03-03T03:08:42;94783.03;;;2.70;98.08
63097;BME280;49185;42.320;23.198;2023-03-03T03:11:08;94777.38;;;2.73;97.67
63097;BME280;49185;42.320;23.198;2023-03-03T03:13:33;94770.91;;;2.76;97.89
63097;BME280;49185;42.320;23.198;2023-03-03T03:15:59;94770.31;;;2.74;97.50
63097;BME280;49185;42.320;23.198;2023-03-03T03:18:26;94777.81;;;2.77;97.54
63097;BME280;49185;42.320;23.198;2023-03-03T03:20:51;94770.38;;;3.07;96.46
63097;BME280;49185;42.320;23.198;2023-03-03T03:23:17;94775.84;;;3.19;94.92
63097;BME280;49185;42.320;23.198;2023-03-03T03:25:43;94781.69;;;3.34;94.02
63097;BME280;49185;42.320;23.198;2023-03-03T03:28:08;94769.28;;;4.08;88.32
63097;BME280;49185;42.320;23.198;2023-03-03T03:30:34;94772.28;;;4.18;87.47
63097;BME280;49185;42.320;23.198;2023-03-03T03:33:00;94767.63;;;4.21;86.49
63097;BME280;49185;42.320;23.198;2023-03-03T03:35:25;94766.66;;;4.02;86.99
63097;BME280;49185;42.320;23.198;2023-03-03T03:37:51;94768.56;;;3.54;88.70
63097;BME280;49185;42.320;23.198;2023-03-03T03:40:16;94766.94;;;3.20;91.08
63097;BME280;49185;42.320;23.198;2023-03-03T03:42:41;94764.28;;;2.93;92.50
63097;BME280;49185;42.320;23.198;2023-03-03T03:45:07;94757.66;;;3.17;92.70
63097;BME280;49185;42.320;23.198;2023-03-03T03:47:33;94758.41;;;3.71;89.81
63097;BME280;49185;42.320;23.198;2023-03-03T03:49:58;94762.28;;;3.29;90.17
63097;BME280;49185;42.320;23.198;2023-03-03T03:52:24;94757.59;;;2.97;92.10
63097;BME280;49185;42.320;23.198;2023-03-03T03:54:49;94764.91;;;3.29;92.57
63097;BME280;49185;42.320;23.198;2023-03-03T03:57:14;94758.56;;;4.03;87.43
63097;BME280;49185;42.320;23.198;2023-03-03T03:59:40;94762.81;;;3.97;87.29
63097;BME280;49185;42.320;23.198;2023-03-03T04:02:06;94758.16;;;3.99;86.81
63097;BME280;49185;42.320;23.198;2023-03-03T04:04:31;94762.03;;;3.97;87.47
63097;BME280;49185;42.320;23.198;2023-03-03T04:06:56;94759.06;;;3.53;88.84
63097;BME280;49185;42.320;23.198;2023-03-03T04:09:22;94757.25;;;3.34;90.56
63097;BME280;49185;42.320;23.198;2023-03-03T04:11:47;94755.00;;;3.11;91.57
63097;BME280;49185;42.320;23.198;2023-03-03T04:14:13;94759.41;;;2.90;92.77
63097;BME280;49185;42.320;23.198;2023-03-03T04:16:38;94766.31;;;2.91;93.28
63097;BME280;49185;42.320;23.198;2023-03-03T04:19:03;94752.09;;;2.65;94.56
63097;BME280;49185;42.320;23.198;2023-03-03T04:21:29;94757.34;;;2.59;94.91
63097;BME280;49185;42.320;23.198;2023-03-03T04:23:54;94754.41;;;3.42;92.19
63097;BME280;49185;42.320;23.198;2023-03-03T04:26:20;94748.66;;;3.92;87.38
63097;BME280;49185;42.320;23.198;2023-03-03T04:28:45;94745.19;;;3.98;86.93
63097;BME280;49185;42.320;23.198;2023-03-03T04:31:11;94750.72;;;3.90;86.54
63097;BME280;49185;42.320;23.198;2023-03-03T04:33:36;94752.53;;;3.83;86.76
63097;BME280;49185;42.320;23.198;2023-03-03T04:36:03;94763.31;;;3.48;88.89
63097;BME280;49185;42.320;23.198;2023-03-03T04:38:28;94757.25;;;3.34;90.21
63097;BME280;49185;42.320;23.198;2023-03-03T04:40:55;94759.03;;;3.00;91.67
63097;BME280;49185;42.320;23.198;2023-03-03T04:43:21;94760.00;;;2.79;93.14
63097;BME280;49185;42.320;23.198;2023-03-03T04:45:46;94764.06;;;2.75;94.64
63097;BME280;49185;42.320;23.198;2023-03-03T04:48:12;94764.88;;;2.82;94.85
63097;BME280;49185;42.320;23.198;2023-03-03T04:50:37;94763.44;;;2.79;94.92
63097;BME280;49185;42.320;23.198;2023-03-03T04:53:03;94764.84;;;2.75;95.31
63097;BME280;49185;42.320;23.198;2023-03-03T04:55:28;94763.28;;;3.01;95.64
63097;BME280;49185;42.320;23.198;2023-03-03T04:57:54;94765.09;;;2.87;95.14
63097;BME280;49185;42.320;23.198;2023-03-03T05:00:19;94765.44;;;2.71;96.03
63097;BME280;49185;42.320;23.198;2023-03-03T05:02:46;94766.63;;;2.61;97.13
63097;BME280;49185;42.320;23.198;2023-03-03T05:05:12;94774.09;;;2.58;98.18
63097;BME280;49185;42.320;23.198;2023-03-03T05:07:38;94772.09;;;2.60;98.14
63097;BME280;49185;42.320;23.198;2023-03-03T05:10:05;94774.50;;;2.61;98.08
63097;BME280;49185;42.320;23.198;2023-03-03T05:12:31;94778.16;;;2.67;97.87
63097;BME280;49185;42.320;23.198;2023-03-03T05:14:56;94775.94;;;2.64;98.53
63097;BME280;49185;42.320;23.198;2023-03-03T05:17:21;94774.72;;;2.60;98.63
63097;BME280;49185;42.320;23.198;2023-03-03T05:19:47;94772.91;;;2.60;98.61
63097;BME280;49185;42.320;23.198;2023-03-03T05:22:12;94775.72;;;2.65;98.71
63097;BME280;49185;42.320;23.198;2023-03-03T05:24:38;94776.16;;;2.69;98.71
63097;BME280;49185;42.320;23.198;2023-03-03T05:27:03;94780.63;;;2.75;98.45
63097;BME280;49185;42.320;23.198;2023-03-03T05:29:30;94781.63;;;2.74;98.61
63097;BME280;49185;42.320;23.198;2023-03-03T05:31:56;94785.88;;;2.75;97.96
63097;BME280;49185;42.320;23.198;2023-03-03T05:34:22;94786.72;;;3.02;98.02
63097;BME280;49185;42.320;23.198;2023-03-03T05:36:48;94782.94;;;3.32;96.42
63097;BME280;49185;42.320;23.198;2023-03-03T05:39:13;94783.13;;;3.64;94.09
63097;BME280;49185;42.320;23.198;2023-03-03T05:41:39;94783.69;;;3.86;91.20
63097;BME280;49185;42.320;23.198;2023-03-03T05:44:04;94788.16;;;3.92;91.22
63097;BME280;49185;42.320;23.198;2023-03-03T05:46:30;94790.38;;;3.82;90.45
63097;BME280;49185;42.320;23.198;2023-03-03T05:48:55;94791.63;;;3.19;93.30
63097;BME280;49185;42.320;23.198;2023-03-03T05:51:21;94793.22;;;3.07;93.76
63097;BME280;49185;42.320;23.198;2023-03-03T05:53:46;94794.41;;;2.91;94.68
63097;BME280;49185;42.320;23.198;2023-03-03T05:56:12;94796.66;;;3.54;92.90
63097;BME280;49185;42.320;23.198;2023-03-03T05:58:37;94791.22;;;3.55;91.73
63097;BME280;49185;42.320;23.198;2023-03-03T06:01:03;94791.56;;;3.99;90.48
63097;BME280;49185;42.320;23.198;2023-03-03T06:03:28;94795.81;;;4.07;89.63
63097;BME280;49185;42.320;23.198;2023-03-03T06:05:54;94798.03;;;4.03;89.26
63097;BME280;49185;42.320;23.198;2023-03-03T06:08:19;94801.06;;;4.13;89.82
63097;BME280;49185;42.320;23.198;2023-03-03T06:10:45;94798.16;;;4.35;88.09
63097;BME280;49185;42.320;23.198;2023-03-03T06:13:10;94795.91;;;4.38;87.85
63097;BME280;49185;42.320;23.198;2023-03-03T06:15:36;94800.78;;;4.35;87.76
63097;BME280;49185;42.320;23.198;2023-03-03T06:18:01;94801.06;;;4.20;87.78
63097;BME280;49185;42.320;23.198;2023-03-03T06:20:27;94807.81;;;3.83;90.07
63097;BME280;49185;42.320;23.198;2023-03-03T06:22:52;94808.63;;;3.56;91.92
63097;BME280;49185;42.320;23.198;2023-03-03T06:25:18;94808.19;;;3.33;93.31
63097;BME280;49185;42.320;23.198;2023-03-03T06:27:43;94811.03;;;3.71;93.25
63097;BME280;49185;42.320;23.198;2023-03-03T06:30:09;94813.88;;;3.90;90.00
63097;BME280;49185;42.320;23.198;2023-03-03T06:32:34;94820.34;;;3.40;91.21
63097;BME280;49185;42.320;23.198;2023-03-03T06:35:00;94815.69;;;3.16;92.52
63097;BME280;49185;42.320;23.198;2023-03-03T06:37:25;94819.94;;;3.30;93.10
63097;BME280;49185;42.320;23.198;2023-03-03T06:39:51;94810.59;;;3.88;92.04
63097;BME280;49185;42.320;23.198;2023-03-03T06:42:16;94813.47;;;3.79;90.59
63097;BME280;49185;42.320;23.198;2023-03-03T06:44:42;94815.91;;;3.54;90.96
63097;BME280;49185;42.320;23.198;2023-03-03T06:47:07;94815.13;;;4.46;87.12
63097;BME280;49185;42.320;23.198;2023-03-03T06:49:32;94811.94;;;4.89;82.87
63097;BME280;49185;42.320;23.198;2023-03-03T06:52:00;94815.31;;;4.57;84.60
63097;BME280;49185;42.320;23.198;2023-03-03T06:54:27;94827.28;;;4.53;84.95
63097;BME280;49185;42.320;23.198;2023-03-03T06:56:57;94816.84;;;4.79;82.75
63097;BME280;49185;42.320;23.198;2023-03-03T06:59:23;94819.16;;;5.00;81.14
63097;BME280;49185;42.320;23.198;2023-03-03T07:01:49;94820.69;;;4.76;83.42
63097;BME280;49185;42.320;23.198;2023-03-03T07:04:23;94818.56;;;4.98;80.72
63097;BME280;49185;42.320;23.198;2023-03-03T07:06:49;94822.09;;;4.85;82.24
63097;BME280;49185;42.320;23.198;2023-03-03T07:09:21;94822.72;;;5.19;80.32
63097;BME280;49185;42.320;23.198;2023-03-03T07:11:47;94829.69;;;5.07;79.70
63097;BME280;49185;42.320;23.198;2023-03-03T07:14:15;94821.19;;;5.05;80.96
63097;BME280;49185;42.320;23.198;2023-03-03T07:16:42;94828.91;;;5.00;81.52
63097;BME280;49185;42.320;23.198;2023-03-03T07:19:18;94826.31;;;4.93;83.26
63097;BME280;49185;42.320;23.198;2023-03-03T07:21:45;94821.34;;;5.10;82.08
63097;BME280;49185;42.320;23.198;2023-03-03T07:24:17;94832.28;;;5.45;80.92
63097;BME280;49185;42.320;23.198;2023-03-03T07:26:43;94819.41;;;5.56;79.27
63097;BME280;49185;42.320;23.198;2023-03-03T07:29:22;94823.69;;;5.57;78.61
63097;BME280;49185;42.320;23.198;2023-03-03T07:31:49;94821.66;;;5.52;78.56
63097;BME280;49185;42.320;23.198;2023-03-03T07:34:30;94824.97;;;5.16;83.85
63097;BME280;49185;42.320;23.198;2023-03-03T07:37:10;94823.59;;;5.38;81.46
63097;BME280;49185;42.320;23.198;2023-03-03T07:39:39;94822.03;;;5.30;82.30
63097;BME280;49185;42.320;23.198;2023-03-03T07:44:42;94813.66;;;5.65;80.65
63097;BME280;49185;42.320;23.198;2023-03-03T07:47:30;94819.53;;;5.42;81.53
63097;BME280;49185;42.320;23.198;2023-03-03T07:50:00;94817.00;;;5.22;80.31
63097;BME280;49185;42.320;23.198;2023-03-03T07:52:42;94816.47;;;5.45;79.30
63097;BME280;49185;42.320;23.198;2023-03-03T07:58:38;94821.75;;;5.45;81.07
63097;BME280;49185;42.320;23.198;2023-03-03T08:01:26;94820.91;;;5.70;79.43
63097;BME280;49185;42.320;23.198;2023-03-03T08:03:52;94814.84;;;5.69;77.94
63097;BME280;49185;42.320;23.198;2023-03-03T08:12:26;94812.47;;;5.86;79.98
63097;BME280;49185;42.320;23.198;2023-03-03T08:14:42;94807.50;;;6.40;76.53
63097;BME280;49185;42.320;23.198;2023-03-03T08:17:19;94800.28;;;6.47;76.21
63097;BME280;49185;42.320;23.198;2023-03-03T08:19:45;94800.16;;;6.24;77.95
63097;BME280;49185;42.320;23.198;2023-03-03T08:22:15;94803.38;;;6.26;77.78
63097;BME280;49185;42.320;23.198;2023-03-03T08:24:41;94799.78;;;6.20;78.27
63097;BME280;49185;42.320;23.198;2023-03-03T08:27:07;94796.94;;;6.59;75.33
63097;BME280;49185;42.320;23.198;2023-03-03T08:29:33;94796.41;;;6.50;75.73
63097;BME280;49185;42.320;23.198;2023-03-03T08:31:58;94801.25;;;6.16;76.55
63097;BME280;49185;42.320;23.198;2023-03-03T08:34:24;94803.22;;;6.21;76.19
63097;BME280;49185;42.320;23.198;2023-03-03T08:36:49;94799.34;;;6.23;76.41
63097;BME280;49185;42.320;23.198;2023-03-03T08:39:15;94798.38;;;5.99;78.93
63097;BME280;49185;42.320;23.198;2023-03-03T08:41:40;94798.53;;;6.04;79.20
63097;BME280;49185;42.320;23.198;2023-03-03T08:44:06;94799.13;;;6.25;77.55
63097;BME280;49185;42.320;23.198;2023-03-03T08:46:31;94807.28;;;6.23;76.13
63097;BME280;49185;42.320;23.198;2023-03-03T08:48:57;94795.31;;;6.21;77.81
63097;BME280;49185;42.320;23.198;2023-03-03T08:51:22;94800.09;;;5.62;80.76
63097;BME280;49185;42.320;23.198;2023-03-03T08:53:48;94801.09;;;6.30;78.17
63097;BME280;49185;42.320;23.198;2023-03-03T08:56:13;94795.31;;;6.39;77.78
63097;BME280;49185;42.320;23.198;2023-03-03T08:58:39;94795.97;;;6.53;73.88
63097;BME280;49185;42.320;23.198;2023-03-03T09:01:04;94803.97;;;6.28;74.48
63097;BME280;49185;42.320;23.198;2023-03-03T09:03:30;94805.91;;;5.96;77.97
63097;BME280;49185;42.320;23.198;2023-03-03T09:05:55;94804.34;;;6.32;76.71
63097;BME280;49185;42.320;23.198;2023-03-03T09:08:22;94806.03;;;6.26;76.98
63097;BME280;49185;42.320;23.198;2023-03-03T09:10:47;94801.69;;;6.13;76.46
63097;BME280;49185;42.320;23.198;2023-03-03T09:13:15;94807.44;;;6.29;78.07
63097;BME280;49185;42.320;23.198;2023-03-03T09:15:41;94808.38;;;5.90;81.09
63097;BME280;49185;42.320;23.198;2023-03-03T09:18:15;94803.16;;;6.27;79.08
63097;BME280;49185;42.320;23.198;2023-03-03T09:20:46;94801.03;;;6.55;75.54
63097;BME280;49185;42.320;23.198;2023-03-03T09:23:31;94808.72;;;6.19;76.61
63097;BME280;49185;42.320;23.198;2023-03-03T09:26:59;94812.00;;;5.96;79.84
63097;BME280;49185;42.320;23.198;2023-03-03T09:29:18;94804.63;;;6.42;76.52
63097;BME280;49185;42.320;23.198;2023-03-03T09:31:52;94800.72;;;6.44;75.54
63097;BME280;49185;42.320;23.198;2023-03-03T09:34:24;94808.25;;;5.79;79.99
63097;BME280;49185;42.320;23.198;2023-03-03T09:36:53;94816.50;;;5.07;82.02
63097;BME280;49185;42.320;23.198;2023-03-03T09:39:26;94811.06;;;4.95;83.73
63097;BME280;49185;42.320;23.198;2023-03-03T09:45:22;94802.38;;;5.77;81.58
63097;BME280;49185;42.320;23.198;2023-03-03T09:48:08;94811.66;;;6.11;78.30
63097;BME280;49185;42.320;23.198;2023-03-03T09:54:48;94809.97;;;5.66;80.88
63097;BME280;49185;42.320;23.198;2023-03-03T09:59:46;94806.56;;;5.34;82.76
63097;BME280;49185;42.320;23.198;2023-03-03T10:02:30;94809.63;;;6.13;79.67
63097;BME280;49185;42.320;23.198;2023-03-03T10:05:27;94809.63;;;6.32;78.08
63097;BME280;49185;42.320;23.198;2023-03-03T10:08:02;94809.47;;;6.26;79.24
63097;BME280;49185;42.320;23.198;2023-03-03T10:10:59;94806.91;;;6.75;76.75
63097;BME280;49185;42.320;23.198;2023-03-03T10:13:50;94803.66;;;6.18;78.86
63097;BME280;49185;42.320;23.198;2023-03-03T10:22:19;94809.41;;;6.15;80.01
63097;BME280;49185;42.320;23.198;2023-03-03T10:25:17;94806.28;;;5.99;80.35
63097;BME280;49185;42.320;23.198;2023-03-03T10:27:48;94814.16;;;5.81;81.67
63097;BME280;49185;42.320;23.198;2023-03-03T10:30:38;94813.69;;;5.84;81.51
63097;BME280;49185;42.320;23.198;2023-03-03T10:33:15;94810.28;;;5.58;82.02
63097;BME280;49185;42.320;23.198;2023-03-03T10:41:14;94807.03;;;5.56;82.88
63097;BME280;49185;42.320;23.198;2023-03-03T10:49:23;94795.47;;;6.07;80.40
63097;BME280;49185;42.320;23.198;2023-03-03T10:51:54;94786.13;;;6.05;80.79
63097;BME280;49185;42.320;23.198;2023-03-03T10:57:19;94787.31;;;6.27;81.17
63097;BME280;49185;42.320;23.198;2023-03-03T11:08:13;94768.88;;;6.21;81.62
63097;BME280;49185;42.320;23.198;2023-03-03T11:10:52;94774.94;;;5.84;82.05
63097;BME280;49185;42.320;23.198;2023-03-03T11:13:28;94769.66;;;5.59;85.03
63097;BME280;49185;42.320;23.198;2023-03-03T11:21:46;94773.78;;;4.91;86.81
63097;BME280;49185;42.320;23.198;2023-03-03T11:27:08;94768.25;;;4.68;89.67
63097;BME280;49185;42.320;23.198;2023-03-03T11:32:45;94766.56;;;4.80;89.33
63097;BME280;49185;42.320;23.198;2023-03-03T11:35:32;94762.34;;;5.61;86.51
63097;BME280;49185;42.320;23.198;2023-03-03T11:38:03;94756.69;;;5.01;87.53
63097;BME280;49185;42.320;23.198;2023-03-03T11:40:56;94757.25;;;5.35;85.51
63097;BME280;49185;42.320;23.198;2023-03-03T11:43:32;94754.91;;;5.51;85.03
63097;BME280;49185;42.320;23.198;2023-03-03T11:46:11;94748.34;;;6.23;81.42
63097;BME280;49185;42.320;23.198;2023-03-03T11:51:19;94748.00;;;5.94;81.85
63097;BME280;49185;42.320;23.198;2023-03-03T11:54:00;94749.28;;;6.10;82.51
63097;BME280;49185;42.320;23.198;2023-03-03T11:56:41;94751.13;;;5.41;84.88
63097;BME280;49185;42.320;23.198;2023-03-03T12:02:33;94748.28;;;5.42;86.08
63097;BME280;49185;42.320;23.198;2023-03-03T12:05:35;94741.81;;;5.38;86.57
63097;BME280;49185;42.320;23.198;2023-03-03T12:08:21;94742.94;;;5.93;84.18
63097;BME280;49185;42.320;23.198;2023-03-03T12:28:34;94731.00;;;7.06;79.68
63097;BME280;49185;42.320;23.198;2023-03-03T12:33:49;94730.09;;;6.70;79.10
63097;BME280;49185;42.320;23.198;2023-03-03T12:36:19;94730.06;;;6.40;80.39
63097;BME280;49185;42.320;23.198;2023-03-03T12:41:44;94720.94;;;7.97;74.65
63097;BME280;49185;42.320;23.198;2023-03-03T12:50:13;94709.44;;;7.92;74.36
63097;BME280;49185;42.320;23.198;2023-03-03T12:52:56;94705.03;;;8.09;72.76
63097;BME280;49185;42.320;23.198;2023-03-03T13:04:07;94715.72;;;5.99;83.51
63097;BME280;49185;42.320;23.198;2023-03-03T13:09:44;94706.22;;;6.58;82.65
63097;BME280;49185;42.320;23.198;2023-03-03T13:17:37;94707.50;;;6.56;82.77
63097;BME280;49185;42.320;23.198;2023-03-03T13:20:17;94706.66;;;6.74;81.35
63097;BME280;49185;42.320;23.198;2023-03-03T13:23:01;94701.94;;;7.89;75.98
63097;BME280;49185;42.320;23.198;2023-03-03T13:28:10;94695.94;;;8.05;76.17
63097;BME280;49185;42.320;23.198;2023-03-03T13:30:42;94700.13;;;7.66;76.26
63097;BME280;49185;42.320;23.198;2023-03-03T13:33:37;94699.97;;;8.08;74.73
63097;BME280;49185;42.320;23.198;2023-03-03T13:36:08;94695.91;;;8.17;75.03
63097;BME280;49185;42.320;23.198;2023-03-03T13:38:39;94695.69;;;8.18;73.27
63097;BME280;49185;42.320;23.198;2023-03-03T13:43:55;94704.13;;;6.49;81.91
63097;BME280;49185;42.320;23.198;2023-03-03T13:54:26;94706.16;;;5.98;84.41
63097;BME280;49185;42.320;23.198;2023-03-03T14:00:29;94697.72;;;6.56;82.29
63097;BME280;49185;42.320;23.198;2023-03-03T14:05:38;94698.78;;;5.81;85.98
63097;BME280;49185;42.320;23.198;2023-03-03T14:08:17;94697.91;;;6.73;82.14
63097;BME280;49185;42.320;23.198;2023-03-03T14:13:48;94692.16;;;6.46;83.09
63097;BME280;49185;42.320;23.198;2023-03-03T14:19:00;94693.72;;;6.96;81.81
63097;BME280;49185;42.320;23.198;2023-03-03T14:24:17;94687.56;;;6.41;83.95
63097;BME280;49185;42.320;23.198;2023-03-03T14:26:47;94683.31;;;7.36;79.93
63097;BME280;49185;42.320;23.198;2023-03-03T14:31:51;94683.94;;;7.08;80.46
63097;BME280;49185;42.320;23.198;2023-03-03T14:36:49;94691.47;;;6.20;84.92
63097;BME280;49185;42.320;23.198;2023-03-03T14:39:39;94692.81;;;6.11;85.44
63097;BME280;49185;42.320;23.198;2023-03-03T14:42:14;94684.09;;;6.41;84.91
63097;BME280;49185;42.320;23.198;2023-03-03T14:44:54;94684.28;;;6.27;85.10
63097;BME280;49185;42.320;23.198;2023-03-03T14:47:22;94686.28;;;6.44;84.39
63097;BME280;49185;42.320;23.198;2023-03-03T14:49:48;94689.34;;;6.59;82.61
63097;BME280;49185;42.320;23.198;2023-03-03T14:54:49;94691.25;;;5.85;87.38
63097;BME280;49185;42.320;23.198;2023-03-03T14:59:59;94690.06;;;5.81;87.61
63097;BME280;49185;42.320;23.198;2023-03-03T15:05:25;94689.09;;;6.00;87.61
63097;BME280;49185;42.320;23.198;2023-03-03T15:07:56;94687.22;;;6.50;85.72
63097;BME280;49185;42.320;23.198;2023-03-03T15:12:53;94692.16;;;5.97;87.40
63097;BME280;49185;42.320;23.198;2023-03-03T15:15:21;94690.53;;;5.96;87.65
63097;BME280;49185;42.320;23.198;2023-03-03T15:26:00;94684.63;;;5.94;88.15
63097;BME280;49185;42.320;23.198;2023-03-03T15:31:48;94684.16;;;6.04;88.13
63097;BME280;49185;42.320;23.198;2023-03-03T15:34:36;94678.19;;;6.08;89.01
63097;BME280;49185;42.320;23.198;2023-03-03T15:37:08;94681.06;;;6.25;87.64
63097;BME280;49185;42.320;23.198;2023-03-03T16:04:04;94711.72;;;6.26;86.10
63097;BME280;49185;42.320;23.198;2023-03-03T16:15:04;94729.25;;;6.39;83.19
63097;BME280;49185;42.320;23.198;2023-03-03T16:18:00;94735.06;;;5.67;87.63
63097;BME280;49185;42.320;23.198;2023-03-03T16:23:56;94745.44;;;5.44;89.63
63097;BME280;49185;42.320;23.198;2023-03-03T16:32:20;94748.50;;;5.41;91.05
63097;BME280;49185;42.320;23.198;2023-03-03T16:34:59;94739.81;;;5.33;90.50
63097;BME280;49185;42.320;23.198;2023-03-03T16:37:42;94740.91;;;5.26;91.06
63097;BME280;49185;42.320;23.198;2023-03-03T16:40:45;94745.94;;;5.27;91.80
63097;BME280;49185;42.320;23.198;2023-03-03T16:43:48;94747.56;;;5.28;91.83
63097;BME280;49185;42.320;23.198;2023-03-03T16:46:25;94746.56;;;5.29;91.70
63097;BME280;49185;42.320;23.198;2023-03-03T16:49:16;94747.88;;;5.45;92.00
63097;BME280;49185;42.320;23.198;2023-03-03T16:52:17;94754.53;;;5.92;88.16
63097;BME280;49185;42.320;23.198;2023-03-03T16:59:54;94761.31;;;6.24;86.93
63097;BME280;49185;42.320;23.198;2023-03-03T17:05:39;94769.75;;;5.71;88.73
63097;BME280;49185;42.320;23.198;2023-03-03T17:08:26;94775.47;;;5.43;90.01
63097;BME280;49185;42.320;23.198;2023-03-03T17:11:16;94772.50;;;5.32;90.47
63097;BME280;49185;42.320;23.198;2023-03-03T17:29:54;94790.97;;;5.32;90.16
63097;BME280;49185;42.320;23.198;2023-03-03T17:44:23;94814.84;;;5.44;91.36